San Luis Rio Colorado, SON, Mexico
Current Conditions -  °F | °C
As of 6:57 AM on Thursday 30 Oct 2014 (Local Time) from KNYL Reporting Station
Broken Clouds Broken Clouds  
Wind Chill: 68°   Ceiling: 25000
Heat Index: 68°   Visibility: 10mi
Dew Point: 34°   Wind: 8mph
Humidity: 28%   Direction: 50°NE
Pressure: 29.94"   Gusts: NA
Location:  32.46°N, 114.78°W
Report Text: KNYL 301357Z 05007KT 10SM BKN250 20/01 A2994 RMK AO2 SLP136 T02000011
Loading
Personal Weather Stations






























Interactive Weather Map
Tropical Storm Tracking
New forecast layout! Learn more

10-Day Weather Forecast

Advertisements
Track Severe Weather on mobile